Terminal Aerodrome Forecast
Issued by NWS Cleveland, OH

Home | Current Version | Previous Version | Graphics & Text | Print | Product List | Glossary On
Versions: 1 2 3 4 5 6 7 8 9 10 11 12 13 14 15
000
FTUS41 KCLE 230540
TAFMFD
TAF
KMFD 230540Z 2306/2406 VRB03KT P6SM BKN250
     FM231500 30005KT P6SM SCT100 OVC250
     FM232200 34007KT P6SM SCT050 OVC100
     FM240000 01007KT P6SM SCT025 BKN050=

USA.gov is the U.S. government's official web portal to all federal, state and local government web resources and services.